sensor_id;sensor_type;location;lat;lon;timestamp;pressure;altitude;pressure_sealevel;temperature;humidity
50057;BME280;36875;49.468;11.200;2023-06-19T00:01:31;97583.56;;;22.18;44.46
50057;BME280;36875;49.468;11.200;2023-06-19T00:03:57;97580.81;;;22.18;44.21
50057;BME280;36875;49.468;11.200;2023-06-19T00:06:22;97584.34;;;22.18;44.23
50057;BME280;36875;49.468;11.200;2023-06-19T00:08:48;97580.03;;;22.17;44.13
50057;BME280;36875;49.468;11.200;2023-06-19T00:11:13;97583.56;;;22.18;44.26
50057;BME280;36875;49.468;11.200;2023-06-19T00:13:40;97578.41;;;22.16;44.27
50057;BME280;36875;49.468;11.200;2023-06-19T00:16:06;97580.81;;;22.18;43.94
50057;BME280;36875;49.468;11.200;2023-06-19T00:18:31;97581.97;;;22.17;44.17
50057;BME280;36875;49.468;11.200;2023-06-19T00:21:04;97579.22;;;22.17;44.11
50057;BME280;36875;49.468;11.200;2023-06-19T00:23:30;97578.41;;;22.16;44.12
50057;BME280;36875;49.468;11.200;2023-06-19T00:25:56;97574.88;;;22.16;44.21
50057;BME280;36875;49.468;11.200;2023-06-19T00:28:21;97569.72;;;22.14;44.20
50057;BME280;36875;49.468;11.200;2023-06-19T00:30:48;97563.44;;;22.13;44.31
50057;BME280;36875;49.468;11.200;2023-06-19T00:33:14;97572.13;;;22.16;44.30
50057;BME280;36875;49.468;11.200;2023-06-19T00:35:40;97574.06;;;22.15;44.23
50057;BME280;36875;49.468;11.200;2023-06-19T00:38:07;97572.13;;;22.16;44.16
50057;BME280;36875;49.468;11.200;2023-06-19T00:40:34;97570.50;;;22.14;44.19
50057;BME280;36875;49.468;11.200;2023-06-19T00:42:59;97573.25;;;22.14;44.28
50057;BME280;36875;49.468;11.200;2023-06-19T00:45:26;97572.47;;;22.14;44.20
50057;BME280;36875;49.468;11.200;2023-06-19T00:47:54;97573.25;;;22.14;44.20
50057;BME280;36875;49.468;11.200;2023-06-19T00:50:20;97570.50;;;22.14;43.94
50057;BME280;36875;49.468;11.200;2023-06-19T00:52:46;97576.00;;;22.14;44.18
50057;BME280;36875;49.468;11.200;2023-06-19T00:55:12;97573.25;;;22.14;44.12
50057;BME280;36875;49.468;11.200;2023-06-19T00:57:39;97580.69;;;22.14;44.21
50057;BME280;36875;49.468;11.200;2023-06-19T01:00:06;97575.19;;;22.14;44.19
50057;BME280;36875;49.468;11.200;2023-06-19T01:02:32;97577.16;;;22.13;44.19
50057;BME280;36875;49.468;11.200;2023-06-19T01:04:59;97580.69;;;22.14;44.20
50057;BME280;36875;49.468;11.200;2023-06-19T01:07:29;97574.41;;;22.13;44.14
50057;BME280;36875;49.468;11.200;2023-06-19T01:09:59;97587.31;;;22.13;44.15
50057;BME280;36875;49.468;11.200;2023-06-19T01:12:32;97581.84;;;22.13;44.55
50057;BME280;36875;49.468;11.200;2023-06-19T01:15:00;97582.63;;;22.13;44.01
50057;BME280;36875;49.468;11.200;2023-06-19T01:17:28;97578.25;;;22.12;44.37
50057;BME280;36875;49.468;11.200;2023-06-19T01:19:54;97576.34;;;22.13;44.18
50057;BME280;36875;49.468;11.200;2023-06-19T01:22:28;97570.72;;;22.09;44.02
50057;BME280;36875;49.468;11.200;2023-06-19T01:24:54;97582.97;;;22.12;43.99
50057;BME280;36875;49.468;11.200;2023-06-19T01:27:19;97577.47;;;22.12;44.08
50057;BME280;36875;49.468;11.200;2023-06-19T01:29:45;97572.78;;;22.12;44.36
50057;BME280;36875;49.468;11.200;2023-06-19T01:32:13;97582.97;;;22.12;44.21
50057;BME280;36875;49.468;11.200;2023-06-19T01:34:41;97577.47;;;22.12;44.17
50057;BME280;36875;49.468;11.200;2023-06-19T01:37:09;97577.47;;;22.12;44.11
50057;BME280;36875;49.468;11.200;2023-06-19T01:39:37;97571.19;;;22.11;44.18
50057;BME280;36875;49.468;11.200;2023-06-19T01:42:04;97573.94;;;22.11;44.17
50057;BME280;36875;49.468;11.200;2023-06-19T01:44:30;97573.94;;;22.11;44.14
50057;BME280;36875;49.468;11.200;2023-06-19T01:46:55;97574.72;;;22.12;44.13
50057;BME280;36875;49.468;11.200;2023-06-19T01:49:21;97577.81;;;22.10;43.86
50057;BME280;36875;49.468;11.200;2023-06-19T01:51:46;97575.84;;;22.11;44.14
50057;BME280;36875;49.468;11.200;2023-06-19T01:54:12;97571.19;;;22.11;44.44
50057;BME280;36875;49.468;11.200;2023-06-19T01:56:39;97573.13;;;22.11;44.10
50057;BME280;36875;49.468;11.200;2023-06-19T01:59:05;97575.84;;;22.11;44.28
50057;BME280;36875;49.468;11.200;2023-06-19T02:01:30;97573.13;;;22.11;44.26
50057;BME280;36875;49.468;11.200;2023-06-19T02:03:56;97572.31;;;22.10;44.32
50057;BME280;36875;49.468;11.200;2023-06-19T02:06:21;97575.06;;;22.10;44.40
50057;BME280;36875;49.468;11.200;2023-06-19T02:11:12;97573.47;;;22.09;44.26
50057;BME280;36875;49.468;11.200;2023-06-19T02:13:39;97584.44;;;22.09;44.22
50057;BME280;36875;49.468;11.200;2023-06-19T02:16:05;97589.91;;;22.09;44.20
50057;BME280;36875;49.468;11.200;2023-06-19T02:18:30;97585.56;;;22.08;44.29
50057;BME280;36875;49.468;11.200;2023-06-19T02:20:56;97575.38;;;22.09;44.08
50057;BME280;36875;49.468;11.200;2023-06-19T02:23:22;97578.97;;;22.09;44.32
50057;BME280;36875;49.468;11.200;2023-06-19T02:25:47;97579.28;;;22.08;44.05
50057;BME280;36875;49.468;11.200;2023-06-19T02:28:13;97578.13;;;22.09;44.25
50057;BME280;36875;49.468;11.200;2023-06-19T02:30:39;97582.81;;;22.08;44.29
50057;BME280;36875;49.468;11.200;2023-06-19T02:33:05;97581.19;;;22.07;44.30
50057;BME280;36875;49.468;11.200;2023-06-19T02:35:30;97584.75;;;22.08;44.23
50057;BME280;36875;49.468;11.200;2023-06-19T02:37:56;97581.19;;;22.07;44.40
50057;BME280;36875;49.468;11.200;2023-06-19T02:40:22;97585.88;;;22.07;44.51
50057;BME280;36875;49.468;11.200;2023-06-19T02:42:48;97584.28;;;22.06;44.29
50057;BME280;36875;49.468;11.200;2023-06-19T02:45:14;97590.56;;;22.06;44.34
50057;BME280;36875;49.468;11.200;2023-06-19T02:47:42;97594.91;;;22.07;44.23
50057;BME280;36875;49.468;11.200;2023-06-19T02:50:07;97591.38;;;22.07;44.34
50057;BME280;36875;49.468;11.200;2023-06-19T02:52:33;97591.38;;;22.07;44.34
50057;BME280;36875;49.468;11.200;2023-06-19T02:54:58;97585.09;;;22.06;44.48
50057;BME280;36875;49.468;11.200;2023-06-19T02:57:24;97580.41;;;22.07;44.33
50057;BME280;36875;49.468;11.200;2023-06-19T02:59:49;97585.09;;;22.06;44.29
50057;BME280;36875;49.468;11.200;2023-06-19T03:02:15;97586.69;;;22.07;44.37
50057;BME280;36875;49.468;11.200;2023-06-19T03:04:42;97589.78;;;22.06;44.38
50057;BME280;36875;49.468;11.200;2023-06-19T03:07:09;97585.09;;;22.06;44.20
50057;BME280;36875;49.468;11.200;2023-06-19T03:09:35;97586.06;;;22.02;44.30
50057;BME280;36875;49.468;11.200;2023-06-19T03:12:01;97597.19;;;22.05;44.39
50057;BME280;36875;49.468;11.200;2023-06-19T03:14:26;97608.97;;;22.06;44.41
50057;BME280;36875;49.468;11.200;2023-06-19T03:16:52;97602.66;;;22.05;44.23
50057;BME280;36875;49.468;11.200;2023-06-19T03:19:17;97608.13;;;22.05;44.40
50057;BME280;36875;49.468;11.200;2023-06-19T03:21:44;97610.09;;;22.05;44.39
50057;BME280;36875;49.468;11.200;2023-06-19T03:24:10;97605.41;;;22.05;44.29
50057;BME280;36875;49.468;11.200;2023-06-19T03:26:35;97604.59;;;22.05;44.29
50057;BME280;36875;49.468;11.200;2023-06-19T03:29:00;97606.53;;;22.04;44.48
50057;BME280;36875;49.468;11.200;2023-06-19T03:31:26;97618.31;;;22.05;44.38
50057;BME280;36875;49.468;11.200;2023-06-19T03:33:51;97620.25;;;22.04;44.35
50057;BME280;36875;49.468;11.200;2023-06-19T03:36:17;97624.56;;;22.05;44.31
50057;BME280;36875;49.468;11.200;2023-06-19T03:38:44;97631.22;;;22.04;44.31
50057;BME280;36875;49.468;11.200;2023-06-19T03:41:09;97638.63;;;22.04;44.37
50057;BME280;36875;49.468;11.200;2023-06-19T03:43:35;97644.91;;;22.04;44.42
50057;BME280;36875;49.468;11.200;2023-06-19T03:46:00;97646.03;;;22.03;44.46
50057;BME280;36875;49.468;11.200;2023-06-19T03:48:26;97642.16;;;22.04;44.45
50057;BME280;36875;49.468;11.200;2023-06-19T03:50:51;97649.59;;;22.04;44.45
50057;BME280;36875;49.468;11.200;2023-06-19T03:53:17;97648.78;;;22.03;44.40
50057;BME280;36875;49.468;11.200;2023-06-19T03:55:44;97650.72;;;22.03;44.46
50057;BME280;36875;49.468;11.200;2023-06-19T03:58:09;97655.88;;;22.04;44.72
50057;BME280;36875;49.468;11.200;2023-06-19T04:00:35;97663.28;;;22.04;44.41
50057;BME280;36875;49.468;11.200;2023-06-19T04:03:00;97662.47;;;22.03;44.53
50057;BME280;36875;49.468;11.200;2023-06-19T04:05:26;97675.06;;;22.04;44.34
50057;BME280;36875;49.468;11.200;2023-06-19T04:07:51;97675.84;;;22.05;44.31
50057;BME280;36875;49.468;11.200;2023-06-19T04:10:17;97683.28;;;22.04;44.52
50057;BME280;36875;49.468;11.200;2023-06-19T04:12:44;97685.53;;;22.02;44.43
50057;BME280;36875;49.468;11.200;2023-06-19T04:15:10;97685.22;;;22.04;44.45
50057;BME280;36875;49.468;11.200;2023-06-19T04:17:36;97679.72;;;22.04;44.70
50057;BME280;36875;49.468;11.200;2023-06-19T04:20:02;97682.81;;;22.02;44.43
50057;BME280;36875;49.468;11.200;2023-06-19T04:22:36;97681.66;;;22.03;44.37
50057;BME280;36875;49.468;11.200;2023-06-19T04:25:01;97677.31;;;22.02;44.47
50057;BME280;36875;49.468;11.200;2023-06-19T04:27:27;97674.56;;;22.02;44.37
50057;BME280;36875;49.468;11.200;2023-06-19T04:29:54;97673.44;;;22.03;44.33
50057;BME280;36875;49.468;11.200;2023-06-19T04:32:19;97677.31;;;22.02;44.41
50057;BME280;36875;49.468;11.200;2023-06-19T04:34:45;97679.72;;;22.04;44.23
50057;BME280;36875;49.468;11.200;2023-06-19T04:37:11;97673.44;;;22.03;44.35
50057;BME280;36875;49.468;11.200;2023-06-19T04:39:37;97669.09;;;22.02;44.43
50057;BME280;36875;49.468;11.200;2023-06-19T04:42:02;97672.63;;;22.03;44.42
50057;BME280;36875;49.468;11.200;2023-06-19T04:44:28;97682.81;;;22.02;44.40
50057;BME280;36875;49.468;11.200;2023-06-19T04:47:00;97684.38;;;22.03;44.36
50057;BME280;36875;49.468;11.200;2023-06-19T04:49:28;97686.00;;;22.04;44.36
50057;BME280;36875;49.468;11.200;2023-06-19T04:51:55;97689.53;;;22.05;44.51
50057;BME280;36875;49.468;11.200;2023-06-19T04:54:20;97691.97;;;22.06;44.05
50057;BME280;36875;49.468;11.200;2023-06-19T04:56:46;97689.69;;;22.08;44.37
50057;BME280;36875;49.468;11.200;2023-06-19T04:59:11;97694.38;;;22.08;44.32
50057;BME280;36875;49.468;11.200;2023-06-19T05:01:37;97697.91;;;22.08;44.41
50057;BME280;36875;49.468;11.200;2023-06-19T05:04:06;97689.22;;;22.06;44.26
50057;BME280;36875;49.468;11.200;2023-06-19T05:06:32;97690.34;;;22.05;44.29
50057;BME280;36875;49.468;11.200;2023-06-19T05:08:57;97677.47;;;22.06;44.29
50057;BME280;36875;49.468;11.200;2023-06-19T05:11:23;97689.22;;;22.06;44.40
50057;BME280;36875;49.468;11.200;2023-06-19T05:13:48;97686.47;;;22.06;44.39
50057;BME280;36875;49.468;11.200;2023-06-19T05:16:14;97690.81;;;22.07;44.49
50057;BME280;36875;49.468;11.200;2023-06-19T05:18:41;97683.09;;;22.09;44.96
50057;BME280;36875;49.468;11.200;2023-06-19T05:21:08;97694.06;;;22.09;44.43
50057;BME280;36875;49.468;11.200;2023-06-19T05:23:34;97687.25;;;22.16;44.48
50057;BME280;36875;49.468;11.200;2023-06-19T05:26:00;97686.91;;;22.17;44.51
50057;BME280;36875;49.468;11.200;2023-06-19T05:28:25;97687.25;;;22.16;44.33
50057;BME280;36875;49.468;11.200;2023-06-19T05:30:51;97693.31;;;22.21;44.49
50057;BME280;36875;49.468;11.200;2023-06-19T05:33:16;97701.22;;;22.23;44.69
50057;BME280;36875;49.468;11.200;2023-06-19T05:35:42;97707.97;;;22.25;44.60
50057;BME280;36875;49.468;11.200;2023-06-19T05:38:11;97710.41;;;22.27;44.52
50057;BME280;36875;49.468;11.200;2023-06-19T05:40:36;97705.22;;;22.34;44.61
50057;BME280;36875;49.468;11.200;2023-06-19T05:43:02;97704.72;;;22.41;44.42
50057;BME280;36875;49.468;11.200;2023-06-19T05:45:27;97705.00;;;22.48;44.48
50057;BME280;36875;49.468;11.200;2023-06-19T05:47:53;97709.78;;;22.51;44.64
50057;BME280;36875;49.468;11.200;2023-06-19T05:50:18;97715.41;;;22.55;44.38
50057;BME280;36875;49.468;11.200;2023-06-19T05:52:44;97718.34;;;22.49;44.62
50057;BME280;36875;49.468;11.200;2023-06-19T05:55:10;97720.47;;;22.44;44.38
50057;BME280;36875;49.468;11.200;2023-06-19T05:57:37;97723.53;;;22.42;44.39
50057;BME280;36875;49.468;11.200;2023-06-19T06:00:03;97723.22;;;22.44;44.57
50057;BME280;36875;49.468;11.200;2023-06-19T06:02:31;97724.19;;;22.48;44.48
50057;BME280;36875;49.468;11.200;2023-06-19T06:04:56;97740.13;;;22.46;44.75
50057;BME280;36875;49.468;11.200;2023-06-19T06:07:24;97733.19;;;22.48;44.37
50057;BME280;36875;49.468;11.200;2023-06-19T06:09:52;97744.44;;;22.56;44.46
50057;BME280;36875;49.468;11.200;2023-06-19T06:12:19;97752.97;;;22.63;44.58
50057;BME280;36875;49.468;11.200;2023-06-19T06:14:45;97755.03;;;22.66;44.47
50057;BME280;36875;49.468;11.200;2023-06-19T06:17:10;97753.25;;;22.70;44.40
50057;BME280;36875;49.468;11.200;2023-06-19T06:19:39;97751.16;;;22.67;44.41
50057;BME280;36875;49.468;11.200;2023-06-19T06:22:05;97747.94;;;22.65;44.41
50057;BME280;36875;49.468;11.200;2023-06-19T06:24:31;97756.03;;;22.61;44.48
50057;BME280;36875;49.468;11.200;2023-06-19T06:26:56;97761.19;;;22.63;44.50
50057;BME280;36875;49.468;11.200;2023-06-19T06:29:23;97753.16;;;22.58;44.49
50057;BME280;36875;49.468;11.200;2023-06-19T06:31:49;97755.75;;;22.54;44.47
50057;BME280;36875;49.468;11.200;2023-06-19T06:34:14;97760.75;;;22.52;44.66
50057;BME280;36875;49.468;11.200;2023-06-19T06:36:40;97754.81;;;22.50;44.72
50057;BME280;36875;49.468;11.200;2023-06-19T06:39:05;97763.38;;;22.48;44.77
50057;BME280;36875;49.468;11.200;2023-06-19T06:41:31;97774.66;;;22.47;44.67
50057;BME280;36875;49.468;11.200;2023-06-19T06:43:57;97777.72;;;22.45;44.68
50057;BME280;36875;49.468;11.200;2023-06-19T06:46:23;97778.88;;;22.44;44.67
50057;BME280;36875;49.468;11.200;2023-06-19T06:48:49;97784.69;;;22.43;44.88
50057;BME280;36875;49.468;11.200;2023-06-19T06:51:15;97787.44;;;22.43;44.58
50057;BME280;36875;49.468;11.200;2023-06-19T06:53:40;97792.09;;;22.42;44.64
50057;BME280;36875;49.468;11.200;2023-06-19T06:56:06;97795.19;;;22.41;44.82
50057;BME280;36875;49.468;11.200;2023-06-19T06:58:31;97790.81;;;22.40;44.63
50057;BME280;36875;49.468;11.200;2023-06-19T07:00:57;97792.78;;;22.39;44.61
50057;BME280;36875;49.468;11.200;2023-06-19T07:03:24;97799.06;;;22.40;44.76
50057;BME280;36875;49.468;11.200;2023-06-19T07:05:49;97790.03;;;22.39;45.13
50057;BME280;36875;49.468;11.200;2023-06-19T07:08:15;97797.47;;;22.39;45.06
50057;BME280;36875;49.468;11.200;2023-06-19T07:10:40;97791.63;;;22.40;44.84
50057;BME280;36875;49.468;11.200;2023-06-19T07:13:06;97789.69;;;22.41;45.07
50057;BME280;36875;49.468;11.200;2023-06-19T07:15:31;97792.09;;;22.42;45.05
50057;BME280;36875;49.468;11.200;2023-06-19T07:17:56;97799.19;;;22.43;44.88
50057;BME280;36875;49.468;11.200;2023-06-19T07:20:23;97792.59;;;22.44;44.95
50057;BME280;36875;49.468;11.200;2023-06-19T07:22:50;97795.81;;;22.46;44.81
50057;BME280;36875;49.468;11.200;2023-06-19T07:25:17;97804.50;;;22.48;45.19
50057;BME280;36875;49.468;11.200;2023-06-19T07:27:43;97793.38;;;22.45;44.82
50057;BME280;36875;49.468;11.200;2023-06-19T07:30:09;97795.66;;;22.43;44.87
50057;BME280;36875;49.468;11.200;2023-06-19T07:32:36;97797.41;;;22.47;44.73
50057;BME280;36875;49.468;11.200;2023-06-19T07:35:01;97806.44;;;22.48;44.78
50057;BME280;36875;49.468;11.200;2023-06-19T07:37:28;97803.19;;;22.46;44.82
50057;BME280;36875;49.468;11.200;2023-06-19T07:39:54;97807.56;;;22.47;44.79
50057;BME280;36875;49.468;11.200;2023-06-19T07:42:19;97809.97;;;22.48;44.86
50057;BME280;36875;49.468;11.200;2023-06-19T07:44:45;97798.88;;;22.45;44.67
50057;BME280;36875;49.468;11.200;2023-06-19T07:47:11;97806.91;;;22.50;44.80
50057;BME280;36875;49.468;11.200;2023-06-19T07:49:36;97801.75;;;22.48;44.89
50057;BME280;36875;49.468;11.200;2023-06-19T07:52:02;97808.38;;;22.47;44.77
50057;BME280;36875;49.468;11.200;2023-06-19T07:54:29;97813.84;;;22.47;44.66
50057;BME280;36875;49.468;11.200;2023-06-19T07:56:55;97804.03;;;22.46;44.76
50057;BME280;36875;49.468;11.200;2023-06-19T07:59:21;97816.59;;;22.47;44.78
50057;BME280;36875;49.468;11.200;2023-06-19T08:01:48;97814.66;;;22.48;44.83
50057;BME280;36875;49.468;11.200;2023-06-19T08:04:13;97813.19;;;22.50;44.82
50057;BME280;36875;49.468;11.200;2023-06-19T08:06:39;97811.56;;;22.49;44.88
50057;BME280;36875;49.468;11.200;2023-06-19T08:09:04;97818.69;;;22.50;44.70
50057;BME280;36875;49.468;11.200;2023-06-19T08:11:31;97815.16;;;22.50;44.70
50057;BME280;36875;49.468;11.200;2023-06-19T08:13:57;97824.16;;;22.50;44.56
50057;BME280;36875;49.468;11.200;2023-06-19T08:16:24;97830.44;;;22.51;44.79
50057;BME280;36875;49.468;11.200;2023-06-19T08:18:50;97825.75;;;22.51;44.91
50057;BME280;36875;49.468;11.200;2023-06-19T08:21:16;97820.94;;;22.48;44.92
50057;BME280;36875;49.468;11.200;2023-06-19T08:23:41;97827.22;;;22.49;44.86
50057;BME280;36875;49.468;11.200;2023-06-19T08:26:09;97830.13;;;22.52;44.64
50057;BME280;36875;49.468;11.200;2023-06-19T08:28:37;97838.66;;;22.51;44.80
50057;BME280;36875;49.468;11.200;2023-06-19T08:31:03;97831.75;;;22.54;44.69
50057;BME280;36875;49.468;11.200;2023-06-19T08:33:28;97831.38;;;22.55;44.72
50057;BME280;36875;49.468;11.200;2023-06-19T08:35:54;97826.72;;;22.56;44.70
50057;BME280;36875;49.468;11.200;2023-06-19T08:38:19;97832.22;;;22.56;44.75
50057;BME280;36875;49.468;11.200;2023-06-19T08:40:45;97831.38;;;22.55;44.80
50057;BME280;36875;49.468;11.200;2023-06-19T08:43:11;97834.63;;;22.57;44.58
50057;BME280;36875;49.468;11.200;2023-06-19T08:45:38;97829.94;;;22.58;44.63
50057;BME280;36875;49.468;11.200;2023-06-19T08:48:04;97827.06;;;22.54;45.00
50057;BME280;36875;49.468;11.200;2023-06-19T08:50:29;97832.50;;;22.63;44.47
50057;BME280;36875;49.468;11.200;2023-06-19T08:52:56;97835.72;;;22.65;44.66
50057;BME280;36875;49.468;11.200;2023-06-19T08:55:21;97837.78;;;22.68;44.52
50057;BME280;36875;49.468;11.200;2023-06-19T08:57:48;97833.78;;;22.65;44.51
50057;BME280;36875;49.468;11.200;2023-06-19T09:00:22;97845.06;;;22.64;44.41
50057;BME280;36875;49.468;11.200;2023-06-19T09:02:50;97841.53;;;22.63;44.53
50057;BME280;36875;49.468;11.200;2023-06-19T09:05:16;97850.56;;;22.64;44.59
50057;BME280;36875;49.468;11.200;2023-06-19T09:07:42;97845.06;;;22.64;44.76
50057;BME280;36875;49.468;11.200;2023-06-19T09:10:13;97833.31;;;22.63;44.54
50057;BME280;36875;49.468;11.200;2023-06-19T09:12:41;97839.59;;;22.64;44.59
50057;BME280;36875;49.468;11.200;2023-06-19T09:15:11;97838.00;;;22.63;44.72
50057;BME280;36875;49.468;11.200;2023-06-19T09:17:37;97833.78;;;22.65;44.75
50057;BME280;36875;49.468;11.200;2023-06-19T09:20:05;97831.81;;;22.66;44.71
50057;BME280;36875;49.468;11.200;2023-06-19T09:22:31;97832.66;;;22.66;44.86
50057;BME280;36875;49.468;11.200;2023-06-19T09:25:00;97827.63;;;22.68;44.61
50057;BME280;36875;49.468;11.200;2023-06-19T09:27:32;97827.09;;;22.75;44.79
50057;BME280;36875;49.468;11.200;2023-06-19T09:29:57;97832.88;;;22.82;44.72
50057;BME280;36875;49.468;11.200;2023-06-19T09:32:24;97826.59;;;22.82;44.51
50057;BME280;36875;49.468;11.200;2023-06-19T09:34:52;97832.41;;;22.80;44.34
50057;BME280;36875;49.468;11.200;2023-06-19T09:37:22;97827.69;;;22.81;44.40
50057;BME280;36875;49.468;11.200;2023-06-19T09:39:48;97829.94;;;22.87;44.40
50057;BME280;36875;49.468;11.200;2023-06-19T09:42:16;97817.47;;;22.90;44.63
50057;BME280;36875;49.468;11.200;2023-06-19T09:44:43;97817.16;;;22.91;44.26
50057;BME280;36875;49.468;11.200;2023-06-19T09:47:14;97825.84;;;22.94;44.17
50057;BME280;36875;49.468;11.200;2023-06-19T09:49:47;97814.53;;;22.95;44.12
50057;BME280;36875;49.468;11.200;2023-06-19T09:52:16;97818.59;;;22.98;44.35
50057;BME280;36875;49.468;11.200;2023-06-19T09:54:44;97813.56;;;23.00;44.35
50057;BME280;36875;49.468;11.200;2023-06-19T09:57:10;97808.88;;;23.00;44.25
50057;BME280;36875;49.468;11.200;2023-06-19T09:59:36;97808.53;;;23.02;44.23
50057;BME280;36875;49.468;11.200;2023-06-19T10:02:03;97809.66;;;23.01;44.36
50057;BME280;36875;49.468;11.200;2023-06-19T10:04:41;97798.69;;;23.01;44.29
50057;BME280;36875;49.468;11.200;2023-06-19T10:07:15;97802.59;;;23.00;44.29
50057;BME280;36875;49.468;11.200;2023-06-19T10:09:42;97800.31;;;23.02;44.16
50057;BME280;36875;49.468;11.200;2023-06-19T10:12:13;97803.53;;;23.04;44.14
50057;BME280;36875;49.468;11.200;2023-06-19T10:14:46;97813.22;;;23.01;44.19
50057;BME280;36875;49.468;11.200;2023-06-19T10:17:11;97805.97;;;22.97;44.36
50057;BME280;36875;49.468;11.200;2023-06-19T10:19:37;97807.13;;;22.96;44.30
50057;BME280;36875;49.468;11.200;2023-06-19T10:22:03;97807.47;;;22.94;44.21
50057;BME280;36875;49.468;11.200;2023-06-19T10:24:29;97806.44;;;22.99;44.25
50057;BME280;36875;49.468;11.200;2023-06-19T10:26:58;97815.97;;;23.01;44.31
50057;BME280;36875;49.468;11.200;2023-06-19T10:29:26;97812.88;;;23.03;44.15
50057;BME280;36875;49.468;11.200;2023-06-19T10:31:52;97808.53;;;23.02;44.39
50057;BME280;36875;49.468;11.200;2023-06-19T10:34:18;97810.66;;;23.05;44.19
50057;BME280;36875;49.468;11.200;2023-06-19T10:36:44;97811.59;;;23.09;44.04
50057;BME280;36875;49.468;11.200;2023-06-19T10:39:09;97811.25;;;23.11;44.08
50057;BME280;36875;49.468;11.200;2023-06-19T10:41:35;97805.41;;;23.12;43.94
50057;BME280;36875;49.468;11.200;2023-06-19T10:44:06;97798.78;;;23.13;44.00
50057;BME280;36875;49.468;11.200;2023-06-19T10:46:36;97803.97;;;23.15;44.15
50057;BME280;36875;49.468;11.200;2023-06-19T10:49:04;97799.25;;;23.15;44.36
50057;BME280;36875;49.468;11.200;2023-06-19T10:51:30;97791.50;;;23.17;44.20
50057;BME280;36875;49.468;11.200;2023-06-19T10:53:57;97789.56;;;23.18;44.19
50057;BME280;36875;49.468;11.200;2023-06-19T10:56:24;97785.53;;;23.15;44.20
50057;BME280;36875;49.468;11.200;2023-06-19T10:58:56;97779.72;;;23.17;44.28
50057;BME280;36875;49.468;11.200;2023-06-19T11:01:22;97775.47;;;23.19;44.40
50057;BME280;36875;49.468;11.200;2023-06-19T11:03:50;97775.94;;;23.21;44.04
50057;BME280;36875;49.468;11.200;2023-06-19T11:06:19;97779.97;;;23.24;44.43
50057;BME280;36875;49.468;11.200;2023-06-19T11:08:50;97776.09;;;23.25;44.49
50057;BME280;36875;49.468;11.200;2023-06-19T11:11:16;97771.41;;;23.25;44.76
50057;BME280;36875;49.468;11.200;2023-06-19T11:13:42;97778.50;;;23.26;44.63
50057;BME280;36875;49.468;11.200;2023-06-19T11:16:08;97774.94;;;23.26;44.54
50057;BME280;36875;49.468;11.200;2023-06-19T11:18:33;97769.78;;;23.24;44.64
50057;BME280;36875;49.468;11.200;2023-06-19T11:21:01;97768.66;;;23.25;44.72
50057;BME280;36875;49.468;11.200;2023-06-19T11:23:27;97771.88;;;23.27;44.70
50057;BME280;36875;49.468;11.200;2023-06-19T11:25:53;97768.81;;;23.29;44.90
50057;BME280;36875;49.468;11.200;2023-06-19T11:28:19;97775.41;;;23.28;44.85
50057;BME280;36875;49.468;11.200;2023-06-19T11:30:48;97775.28;;;23.24;45.18
50057;BME280;36875;49.468;11.200;2023-06-19T11:33:16;97780.44;;;23.26;44.83
50057;BME280;36875;49.468;11.200;2023-06-19T11:35:47;97778.16;;;23.28;44.91
50057;BME280;36875;49.468;11.200;2023-06-19T11:38:18;97770.72;;;23.28;44.79
50057;BME280;36875;49.468;11.200;2023-06-19T11:40:43;97766.53;;;23.31;44.86
50057;BME280;36875;49.468;11.200;2023-06-19T11:43:11;97771.69;;;23.33;44.73
50057;BME280;36875;49.468;11.200;2023-06-19T11:45:47;97772.00;;;23.31;44.67
50057;BME280;36875;49.468;11.200;2023-06-19T11:48:13;97766.19;;;23.33;44.79
50057;BME280;36875;49.468;11.200;2023-06-19T11:50:39;97768.94;;;23.33;45.09
50057;BME280;36875;49.468;11.200;2023-06-19T11:53:04;97760.69;;;23.33;44.84
50057;BME280;36875;49.468;11.200;2023-06-19T11:55:31;97760.34;;;23.34;44.76
50057;BME280;36875;49.468;11.200;2023-06-19T11:57:57;97759.53;;;23.34;44.74
50057;BME280;36875;49.468;11.200;2023-06-19T12:00:22;97756.78;;;23.34;44.70
50057;BME280;36875;49.468;11.200;2023-06-19T12:02:47;97748.56;;;23.34;45.09
50057;BME280;36875;49.468;11.200;2023-06-19T12:05:13;97741.94;;;23.35;44.98
50057;BME280;36875;49.468;11.200;2023-06-19T12:07:39;97741.13;;;23.34;44.76
50057;BME280;36875;49.468;11.200;2023-06-19T12:10:06;97739.66;;;23.37;44.81
50057;BME280;36875;49.468;11.200;2023-06-19T12:12:37;97739.31;;;23.38;44.81
50057;BME280;36875;49.468;11.200;2023-06-19T12:15:05;97731.09;;;23.38;44.78
50057;BME280;36875;49.468;11.200;2023-06-19T12:17:31;97732.66;;;23.39;45.01
50057;BME280;36875;49.468;11.200;2023-06-19T12:19:56;97724.09;;;23.41;44.81
50057;BME280;36875;49.468;11.200;2023-06-19T12:22:22;97725.25;;;23.40;44.79
50057;BME280;36875;49.468;11.200;2023-06-19T12:24:49;97719.75;;;23.40;44.98
50057;BME280;36875;49.468;11.200;2023-06-19T12:27:15;97721.34;;;23.41;44.92
50057;BME280;36875;49.468;11.200;2023-06-19T12:29:42;97722.16;;;23.41;45.10
50057;BME280;36875;49.468;11.200;2023-06-19T12:32:07;97728.47;;;23.42;44.98
50057;BME280;36875;49.468;11.200;2023-06-19T12:34:33;97725.25;;;23.40;45.00
50057;BME280;36875;49.468;11.200;2023-06-19T12:36:58;97723.97;;;23.37;45.05
50057;BME280;36875;49.468;11.200;2023-06-19T12:39:24;97727.06;;;23.36;45.39
50057;BME280;36875;49.468;11.200;2023-06-19T12:41:50;97725.59;;;23.38;45.53
50057;BME280;36875;49.468;11.200;2023-06-19T12:44:16;97722.03;;;23.38;45.42
50057;BME280;36875;49.468;11.200;2023-06-19T12:46:43;97714.47;;;23.35;45.73
50057;BME280;36875;49.468;11.200;2023-06-19T12:49:08;97715.59;;;23.34;45.44